Time;durP1;ratioP1;P1;durP2;ratioP2;P2;SDS_P1;SDS_P2;PMS_P1;PMS_P2;Temp;Humidity;BMP_temperature;BMP_pressure;BME280_temperature;BME280_humidity;BME280_pressure;Samples;Min_cycle;Max_cycle;Signal;HPM_P1;HPM_P2
2020/12/22 00:02:10;;;;;;;;;;;;;;;;;;5016109;28;1451;-86
2020/12/22 00:04:35;;;;;;;;;;;;;;;;;;5015593;28;1287;-85
2020/12/22 00:07:00;;;;;;;;;;;;;;;;;;5015417;28;1135;-85
2020/12/22 00:09:25;;;;;;;;;;;;;;;;;;5016724;28;922;-87
2020/12/22 00:11:51;;;;;;;;;;;;;;;;;;5015414;28;1601;-85
2020/12/22 00:14:16;;;;;;;;;;;;;;;;;;5016591;28;877;-86
2020/12/22 00:16:41;;;;;;;;;;;;;;;;;;5017249;28;755;-85
2020/12/22 00:19:07;;;;;;;;;;;;;;;;;;5016404;28;826;-85
2020/12/22 00:21:33;;;;;;;;;;;;;;;;;;5014948;28;1890;-86
2020/12/22 00:23:58;;;;;;;;;;;;;;;;;;5016275;28;829;-85
2020/12/22 00:26:23;;;;;;;;;;;;;;;;;;5014340;28;1314;-85
2020/12/22 00:28:49;;;;;;;;;;;;;;;;;;5015217;28;906;-86
2020/12/22 00:31:14;;;;;;;;;;;;;;;;;;5014675;28;1338;-86
2020/12/22 00:33:39;;;;;;;;;;;;;;;;;;5015431;28;1077;-85
2020/12/22 00:36:08;;;;;;;;;;;;;;;;;;5014917;28;916;-87
2020/12/22 00:38:33;;;;;;;;;;;;;;;;;;5016323;28;758;-85
2020/12/22 00:40:59;;;;;;;;;;;;;;;;;;5015140;28;1949;-85
2020/12/22 00:43:24;;;;;;;;;;;;;;;;;;5014650;28;1428;-87
2020/12/22 00:45:49;;;;;;;;;;;;;;;;;;5014948;28;1181;-86
2020/12/22 00:48:14;;;;;;;;;;;;;;;;;;5015182;28;1332;-86
2020/12/22 00:50:40;;;;;;;;;;;;;;;;;;5016340;28;807;-87
2020/12/22 00:53:05;;;;;;;;;;;;;;;;;;5016313;28;1306;-87
2020/12/22 00:55:30;;;;;;;;;;;;;;;;;;5015264;28;1200;-86
2020/12/22 00:57:55;;;;;;;;;;;;;;;;;;5014834;28;1167;-87
2020/12/22 01:00:21;;;;;;;;;;;;;;;;;;5016022;28;1902;-84
2020/12/22 01:02:46;;;;;;;;;;;;;;;;;;5016362;28;1401;-86
2020/12/22 01:05:12;;;;;;;;;;;;;;;;;;5016782;28;893;-86
2020/12/22 01:07:37;;;;;;;;;;;;;;;;;;5015122;28;1239;-87
2020/12/22 01:10:02;;;;;;;;;;;;;;;;;;5015951;28;866;-86
2020/12/22 01:12:27;;;;;;;;;;;;;;;;;;5015020;28;1374;-86
2020/12/22 01:14:53;;;;;;;;;;;;;;;;;;5014708;28;826;-86
2020/12/22 01:17:18;;;;;;;;;;;;;;;;;;4998420;28;1337;-86
2020/12/22 01:19:44;;;;;;;;;;;;;;;;;;5014329;28;1941;-87
2020/12/22 01:22:09;;;;;;;;;;;;;;;;;;5014911;28;1365;-86
2020/12/22 01:24:34;;;;;;;;;;;;;;;;;;5014737;28;1180;-87
2020/12/22 01:26:59;;;;;;;;;;;;;;;;;;5014752;28;1240;-86
2020/12/22 01:29:25;;;;;;;;;;;;;;;;;;5015920;28;838;-87
2020/12/22 01:31:50;;;;;;;;;;;;;;;;;;5014215;28;1369;-87
2020/12/22 01:34:15;;;;;;;;;;;;;;;;;;5014308;28;1326;-85
2020/12/22 01:36:41;;;;;;;;;;;;;;;;;;5014898;28;944;-85
2020/12/22 01:39:06;;;;;;;;;;;;;;;;;;5014273;28;1095;-87
2020/12/22 01:41:32;;;;;;;;;;;;;;;;;;5015331;28;1951;-85
2020/12/22 01:44:08;;;;;;;;;;;;;;;;;;5015428;28;919;-85
2020/12/22 01:46:35;;;;;;;;;;;;;;;;;;5014096;28;1118;-85
2020/12/22 01:49:02;;;;;;;;;;;;;;;;;;5014129;28;1223;-87
2020/12/22 01:51:29;;;;;;;;;;;;;;;;;;5014283;28;1311;-85
2020/12/22 01:53:55;;;;;;;;;;;;;;;;;;5014018;28;1239;-86
2020/12/22 01:56:20;;;;;;;;;;;;;;;;;;5013941;28;869;-85
2020/12/22 01:58:45;;;;;;;;;;;;;;;;;;5015165;28;878;-86
2020/12/22 02:01:11;;;;;;;;;;;;;;;;;;5013707;28;1894;-86
2020/12/22 02:03:36;;;;;;;;;;;;;;;;;;5013812;28;1502;-86
2020/12/22 02:06:01;;;;;;;;;;;;;;;;;;5014311;28;1471;-85
2020/12/22 02:08:26;;;;;;;;;;;;;;;;;;5014140;28;1175;-85
2020/12/22 02:10:52;;;;;;;;;;;;;;;;;;5015003;28;802;-87
2020/12/22 02:13:17;;;;;;;;;;;;;;;;;;5014873;28;1338;-85
2020/12/22 02:15:42;;;;;;;;;;;;;;;;;;5013682;28;1708;-84
2020/12/22 02:18:07;;;;;;;;;;;;;;;;;;5015141;28;794;-85
2020/12/22 02:20:33;;;;;;;;;;;;;;;;;;5014728;28;1890;-86
2020/12/22 02:22:58;;;;;;;;;;;;;;;;;;5013657;28;1366;-86
2020/12/22 02:25:23;;;;;;;;;;;;;;;;;;5014947;28;819;-87
2020/12/22 02:27:48;;;;;;;;;;;;;;;;;;5015157;28;873;-86
2020/12/22 02:30:14;;;;;;;;;;;;;;;;;;5013711;28;1128;-86
2020/12/22 02:32:39;;;;;;;;;;;;;;;;;;5014772;28;1378;-87
2020/12/22 02:35:04;;;;;;;;;;;;;;;;;;5013770;28;1300;-85
2020/12/22 02:37:30;;;;;;;;;;;;;;;;;;5013393;28;882;-85
2020/12/22 02:39:55;;;;;;;;;;;;;;;;;;5013266;28;1890;-85
2020/12/22 02:42:20;;;;;;;;;;;;;;;;;;5013376;28;1314;-86
2020/12/22 02:44:46;;;;;;;;;;;;;;;;;;5013495;28;1094;-86
2020/12/22 02:47:12;;;;;;;;;;;;;;;;;;5013494;28;1110;-84
2020/12/22 02:49:39;;;;;;;;;;;;;;;;;;5018096;28;810;-86
2020/12/22 02:52:04;;;;;;;;;;;;;;;;;;5017420;28;1384;-87
2020/12/22 02:54:29;;;;;;;;;;;;;;;;;;5018516;28;898;-87
2020/12/22 02:56:54;;;;;;;;;;;;;;;;;;5017576;28;1345;-86
2020/12/22 02:59:19;;;;;;;;;;;;;;;;;;5018446;28;1123;-86
2020/12/22 03:01:45;;;;;;;;;;;;;;;;;;5017265;28;1902;-86
2020/12/22 03:04:12;;;;;;;;;;;;;;;;;;5017214;28;917;-86
2020/12/22 03:06:37;;;;;;;;;;;;;;;;;;5018310;28;897;-85
2020/12/22 03:09:03;;;;;;;;;;;;;;;;;;5017022;28;1281;-85
2020/12/22 03:11:28;;;;;;;;;;;;;;;;;;5016778;28;1448;-86
2020/12/22 03:13:53;;;;;;;;;;;;;;;;;;5018168;28;873;-85
2020/12/22 03:16:19;;;;;;;;;;;;;;;;;;5016962;28;1261;-86
2020/12/22 03:18:44;;;;;;;;;;;;;;;;;;5016880;28;1188;-86
2020/12/22 03:21:09;;;;;;;;;;;;;;;;;;5016610;28;1945;-85
2020/12/22 03:23:34;;;;;;;;;;;;;;;;;;5018015;28;1394;-84
2020/12/22 03:26:00;;;;;;;;;;;;;;;;;;5016759;28;1165;-83
2020/12/22 03:28:25;;;;;;;;;;;;;;;;;;5017929;28;927;-83
2020/12/22 03:30:50;;;;;;;;;;;;;;;;;;5017809;28;882;-83
2020/12/22 03:33:16;;;;;;;;;;;;;;;;;;5016681;28;1345;-83
2020/12/22 03:35:41;;;;;;;;;;;;;;;;;;5017001;28;889;-81
2020/12/22 03:38:06;;;;;;;;;;;;;;;;;;5017776;28;910;-83
2020/12/22 03:40:31;;;;;;;;;;;;;;;;;;5016258;28;1961;-84
2020/12/22 03:42:56;;;;;;;;;;;;;;;;;;5017788;28;1302;-82
2020/12/22 03:45:22;;;;;;;;;;;;;;;;;;5016669;28;1270;-83
2020/12/22 03:47:47;;;;;;;;;;;;;;;;;;5017947;28;798;-82
2020/12/22 03:50:13;;;;;;;;;;;;;;;;;;5017254;28;1129;-84
2020/12/22 03:52:38;;;;;;;;;;;;;;;;;;5018021;28;1326;-83
2020/12/22 03:55:04;;;;;;;;;;;;;;;;;;5017898;28;882;-82
2020/12/22 03:57:29;;;;;;;;;;;;;;;;;;5017982;28;1336;-82
2020/12/22 03:59:54;;;;;;;;;;;;;;;;;;5016554;28;1969;-82
2020/12/22 04:02:19;;;;;;;;;;;;;;;;;;5018260;28;1369;-84
2020/12/22 04:04:45;;;;;;;;;;;;;;;;;;5018909;28;1546;-84
2020/12/22 04:07:10;;;;;;;;;;;;;;;;;;5016972;28;1143;-82
2020/12/22 04:09:35;;;;;;;;;;;;;;;;;;5017156;28;1213;-83
2020/12/22 04:12:00;;;;;;;;;;;;;;;;;;5023656;28;1361;-84
2020/12/22 04:14:26;;;;;;;;;;;;;;;;;;5016774;28;1288;-83
2020/12/22 04:16:51;;;;;;;;;;;;;;;;;;5023302;28;905;-84
2020/12/22 04:19:16;;;;;;;;;;;;;;;;;;5017533;28;791;-86
2020/12/22 04:21:41;;;;;;;;;;;;;;;;;;5016754;28;1878;-85
2020/12/22 04:24:07;;;;;;;;;;;;;;;;;;5015654;28;1212;-86
2020/12/22 04:26:32;;;;;;;;;;;;;;;;;;5016924;28;802;-82
2020/12/22 04:28:58;;;;;;;;;;;;;;;;;;5015717;28;1275;-84
2020/12/22 04:31:23;;;;;;;;;;;;;;;;;;5016553;28;1294;-83
2020/12/22 04:33:49;;;;;;;;;;;;;;;;;;5016140;28;1406;-83
2020/12/22 04:36:15;;;;;;;;;;;;;;;;;;5015600;28;970;-83
2020/12/22 04:38:40;;;;;;;;;;;;;;;;;;5015766;28;1116;-82
2020/12/22 04:41:06;;;;;;;;;;;;;;;;;;5016592;28;1894;-82
2020/12/22 04:43:34;;;;;;;;;;;;;;;;;;5020449;28;1444;-83
2020/12/22 04:46:05;;;;;;;;;;;;;;;;;;5019708;28;846;-86
2020/12/22 04:49:09;;;;;;;;;;;;;;;;;;;;;
2020/12/22 04:51:41;;;;;;;;;;;;;;;;;;5016186;28;1361;-84
2020/12/22 04:54:29;;;;;;;;;;;;;;;;;;5015895;28;1342;-85
2020/12/22 04:57:04;;;;;;;;;;;;;;;;;;4986465;28;1457;-83
2020/12/22 04:59:29;;;;;;;;;;;;;;;;;;5014968;28;854;-83
2020/12/22 05:01:55;;;;;;;;;;;;;;;;;;5014790;28;1902;-83
2020/12/22 05:04:20;;;;;;;;;;;;;;;;;;5016459;28;885;-85
2020/12/22 05:06:46;;;;;;;;;;;;;;;;;;5016176;28;834;-82
2020/12/22 05:09:11;;;;;;;;;;;;;;;;;;5016146;28;834;-84
2020/12/22 05:11:37;;;;;;;;;;;;;;;;;;5014343;28;1846;-83
2020/12/22 05:14:04;;;;;;;;;;;;;;;;;;5016022;28;822;-82
2020/12/22 05:16:29;;;;;;;;;;;;;;;;;;5014548;28;811;-81
2020/12/22 05:18:55;;;;;;;;;;;;;;;;;;5014998;28;1256;-83
2020/12/22 05:21:20;;;;;;;;;;;;;;;;;;5015676;28;1951;-84
2020/12/22 05:23:50;;;;;;;;;;;;;;;;;;5014654;28;1355;-84
2020/12/22 05:26:21;;;;;;;;;;;;;;;;;;5016179;28;856;-82
2020/12/22 05:28:47;;;;;;;;;;;;;;;;;;5015943;28;964;-82
2020/12/22 05:31:15;;;;;;;;;;;;;;;;;;5015737;28;838;-84
2020/12/22 05:33:41;;;;;;;;;;;;;;;;;;5016248;28;1023;-82
2020/12/22 05:36:07;;;;;;;;;;;;;;;;;;5016423;28;1016;-83
2020/12/22 05:38:34;;;;;;;;;;;;;;;;;;5016066;28;1296;-84
2020/12/22 05:41:01;;;;;;;;;;;;;;;;;;5015924;28;1875;-84
2020/12/22 05:43:26;;;;;;;;;;;;;;;;;;5017058;28;1342;-84
2020/12/22 05:45:51;;;;;;;;;;;;;;;;;;5017504;28;873;-82
2020/12/22 05:48:16;;;;;;;;;;;;;;;;;;5016209;28;1004;-85
2020/12/22 05:50:48;;;;;;;;;;;;;;;;;;5014768;28;881;-83
2020/12/22 05:53:14;;;;;;;;;;;;;;;;;;5016095;28;1329;-86
2020/12/22 05:55:39;;;;;;;;;;;;;;;;;;5014152;28;1369;-85
2020/12/22 05:58:07;;;;;;;;;;;;;;;;;;5013943;28;1510;-85
2020/12/22 06:00:33;;;;;;;;;;;;;;;;;;5013672;28;2633;-85
2020/12/22 06:03:03;;;;;;;;;;;;;;;;;;5014212;28;1365;-82
2020/12/22 06:05:30;;;;;;;;;;;;;;;;;;5014057;28;1387;-84
2020/12/22 06:07:56;;;;;;;;;;;;;;;;;;5013832;28;1292;-83
2020/12/22 06:10:23;;;;;;;;;;;;;;;;;;5014186;28;889;-83
2020/12/22 06:12:48;;;;;;;;;;;;;;;;;;5015149;28;1439;-85
2020/12/22 06:15:13;;;;;;;;;;;;;;;;;;5014198;28;1242;-83
2020/12/22 06:17:42;;;;;;;;;;;;;;;;;;5013637;28;1113;-85
2020/12/22 06:20:08;;;;;;;;;;;;;;;;;;5013494;28;1886;-84
2020/12/22 06:22:33;;;;;;;;;;;;;;;;;;5014454;28;1302;-84
2020/12/22 06:24:59;;;;;;;;;;;;;;;;;;5013972;28;1250;-85
2020/12/22 06:27:30;;;;;;;;;;;;;;;;;;5013845;28;822;-83
2020/12/22 06:29:56;;;;;;;;;;;;;;;;;;5013457;28;838;-84
2020/12/22 06:32:25;;;;;;;;;;;;;;;;;;5014790;28;1310;-83
2020/12/22 06:34:51;;;;;;;;;;;;;;;;;;5013816;28;1311;-81
2020/12/22 06:37:19;;;;;;;;;;;;;;;;;;5013769;28;1024;-82
2020/12/22 06:39:48;;;;;;;;;;;;;;;;;;5013254;28;1277;-82
2020/12/22 06:42:39;;;;;;;;;;;;;;;;;;5013412;28;1947;-83
2020/12/22 06:45:23;;;;;;;;;;;;;;;;;;5010419;28;1213;-85
2020/12/22 06:47:49;;;;;;;;;;;;;;;;;;5014691;28;802;-86
2020/12/22 06:50:37;;;;;;;;;;;;;;;;;;5013193;28;1268;-83
2020/12/22 06:53:03;;;;;;;;;;;;;;;;;;5009162;28;1329;-85
2020/12/22 06:55:47;;;;;;;;;;;;;;;;;;5013666;28;1371;-83
2020/12/22 06:58:33;;;;;;;;;;;;;;;;;;5013306;28;1629;-82
2020/12/22 07:00:58;;;;;;;;;;;;;;;;;;5014489;28;1894;-83
2020/12/22 07:03:23;;;;;;;;;;;;;;;;;;5014531;28;1389;-84
2020/12/22 07:05:49;;;;;;;;;;;;;;;;;;5014927;28;755;-84
2020/12/22 07:08:15;;;;;;;;;;;;;;;;;;5013418;28;1073;-82
2020/12/22 07:10:42;;;;;;;;;;;;;;;;;;5014640;28;861;-84
2020/12/22 07:13:08;;;;;;;;;;;;;;;;;;5013550;28;1334;-83
2020/12/22 07:15:41;;;;;;;;;;;;;;;;;;5021132;28;810;-86
2020/12/22 07:18:11;;;;;;;;;;;;;;;;;;5018580;28;1091;-85
2020/12/22 07:20:41;;;;;;;;;;;;;;;;;;5013571;28;1882;-85
2020/12/22 07:23:07;;;;;;;;;;;;;;;;;;5015193;28;1392;-83
2020/12/22 07:25:32;;;;;;;;;;;;;;;;;;5013259;28;1300;-84
2020/12/22 07:27:58;;;;;;;;;;;;;;;;;;5013040;28;1480;-83
2020/12/22 07:30:23;;;;;;;;;;;;;;;;;;5012922;28;1653;-83
2020/12/22 07:32:50;;;;;;;;;;;;;;;;;;5014398;28;1309;-82
2020/12/22 07:35:17;;;;;;;;;;;;;;;;;;5016143;28;1159;-84
2020/12/22 07:37:43;;;;;;;;;;;;;;;;;;5017914;28;806;-85
2020/12/22 07:40:09;;;;;;;;;;;;;;;;;;5017772;28;1898;-84
2020/12/22 07:42:34;;;;;;;;;;;;;;;;;;5017878;28;1455;-84
2020/12/22 07:45:04;;;;;;;;;;;;;;;;;;5018045;28;862;-83
2020/12/22 07:47:29;;;;;;;;;;;;;;;;;;5017872;28;826;-85
2020/12/22 07:49:54;;;;;;;;;;;;;;;;;;5017686;28;861;-84
2020/12/22 07:52:21;;;;;;;;;;;;;;;;;;5016363;28;1350;-82
2020/12/22 07:54:56;;;;;;;;;;;;;;;;;;5016540;28;1369;-85
2020/12/22 07:57:22;;;;;;;;;;;;;;;;;;5016387;28;905;-83
2020/12/22 07:59:48;;;;;;;;;;;;;;;;;;5017402;28;1019;-84
2020/12/22 08:02:22;;;;;;;;;;;;;;;;;;5017267;28;1954;-83
2020/12/22 08:04:47;;;;;;;;;;;;;;;;;;5016301;28;953;-83
2020/12/22 08:07:12;;;;;;;;;;;;;;;;;;5017563;28;941;-83
2020/12/22 08:09:38;;;;;;;;;;;;;;;;;;5016334;28;838;-82
2020/12/22 08:12:04;;;;;;;;;;;;;;;;;;5015845;28;1409;-82
2020/12/22 08:14:31;;;;;;;;;;;;;;;;;;5015841;28;885;-84
2020/12/22 08:17:00;;;;;;;;;;;;;;;;;;5015798;28;1378;-82
2020/12/22 08:19:28;;;;;;;;;;;;;;;;;;5015827;28;1024;-82
2020/12/22 08:21:59;;;;;;;;;;;;;;;;;;5015816;28;1967;-82
2020/12/22 08:24:25;;;;;;;;;;;;;;;;;;5017097;28;892;-83
2020/12/22 08:26:51;;;;;;;;;;;;;;;;;;5015722;28;1011;-83
2020/12/22 08:29:17;;;;;;;;;;;;;;;;;;5015839;28;1436;-85
2020/12/22 08:31:43;;;;;;;;;;;;;;;;;;5016890;28;1389;-82
2020/12/22 08:34:10;;;;;;;;;;;;;;;;;;5017048;28;889;-83
2020/12/22 08:36:36;;;;;;;;;;;;;;;;;;5015702;28;877;-84
2020/12/22 08:39:14;;;;;;;;;;;;;;;;;;5016003;28;1281;-82
2020/12/22 08:41:41;;;;;;;;;;;;;;;;;;5015099;28;1890;-83
2020/12/22 08:44:06;;;;;;;;;;;;;;;;;;5015394;28;1219;-84
2020/12/22 08:46:32;;;;;;;;;;;;;;;;;;5016252;28;771;-83
2020/12/22 08:49:13;;;;;;;;;;;;;;;;;;5016571;28;814;-83
2020/12/22 08:51:39;;;;;;;;;;;;;;;;;;5015021;28;1318;-83
2020/12/22 08:54:05;;;;;;;;;;;;;;;;;;5015202;28;877;-84
2020/12/22 08:56:30;;;;;;;;;;;;;;;;;;5015096;28;1336;-82
2020/12/22 08:59:00;;;;;;;;;;;;;;;;;;5014869;28;1528;-84
2020/12/22 09:01:45;;;;;;;;;;;;;;;;;;5014787;28;1962;-86
2020/12/22 09:04:11;;;;;;;;;;;;;;;;;;5016384;28;825;-84
2020/12/22 09:06:38;;;;;;;;;;;;;;;;;;5014848;28;1133;-86
2020/12/22 09:09:05;;;;;;;;;;;;;;;;;;5014911;28;1326;-85
2020/12/22 09:11:30;;;;;;;;;;;;;;;;;;5015807;28;1302;-84
2020/12/22 09:14:01;;;;;;;;;;;;;;;;;;5014918;28;1256;-85
2020/12/22 09:16:42;;;;;;;;;;;;;;;;;;5016029;28;940;-81
2020/12/22 09:19:07;;;;;;;;;;;;;;;;;;5014776;28;1499;-84
2020/12/22 09:21:33;;;;;;;;;;;;;;;;;;5015651;28;2035;-84
2020/12/22 09:23:58;;;;;;;;;;;;;;;;;;5015952;28;935;-83
2020/12/22 09:26:24;;;;;;;;;;;;;;;;;;5014519;28;1234;-82
2020/12/22 09:28:49;;;;;;;;;;;;;;;;;;5015733;28;924;-85
2020/12/22 09:31:21;;;;;;;;;;;;;;;;;;5015802;28;1314;-88
2020/12/22 09:33:46;;;;;;;;;;;;;;;;;;5015151;28;1238;-88
2020/12/22 09:36:12;;;;;;;;;;;;;;;;;;5015655;28;1281;-87
2020/12/22 09:38:37;;;;;;;;;;;;;;;;;;5014731;28;1041;-88
2020/12/22 09:41:02;;;;;;;;;;;;;;;;;;5014185;28;1898;-89
2020/12/22 09:43:27;;;;;;;;;;;;;;;;;;5014576;28;1294;-85
2020/12/22 09:45:54;;;;;;;;;;;;;;;;;;5022079;28;1190;-84
2020/12/22 09:48:19;;;;;;;;;;;;;;;;;;5029339;28;1183;-84
2020/12/22 09:50:45;;;;;;;;;;;;;;;;;;5014732;28;1202;-87
2020/12/22 09:53:10;;;;;;;;;;;;;;;;;;5014384;28;1342;-86
2020/12/22 09:55:35;;;;;;;;;;;;;;;;;;5014072;28;1525;-87
2020/12/22 09:58:01;;;;;;;;;;;;;;;;;;5014606;28;901;-87
2020/12/22 10:00:26;;;;;;;;;;;;;;;;;;5014447;28;1967;-88
2020/12/22 10:02:51;;;;;;;;;;;;;;;;;;5014356;28;1463;-85
2020/12/22 10:05:16;;;;;;;;;;;;;;;;;;5014097;28;1299;-87
2020/12/22 10:07:42;;;;;;;;;;;;;;;;;;5014298;28;1251;-88
2020/12/22 10:10:07;;;;;;;;;;;;;;;;;;5013796;28;1832;-86
2020/12/22 10:12:32;;;;;;;;;;;;;;;;;;5015406;28;1449;-90
2020/12/22 10:14:57;;;;;;;;;;;;;;;;;;5015195;28;886;-86
2020/12/22 10:17:22;;;;;;;;;;;;;;;;;;5013854;28;1309;-88
2020/12/22 10:19:48;;;;;;;;;;;;;;;;;;5013707;28;998;-88
2020/12/22 10:22:13;;;;;;;;;;;;;;;;;;5013718;28;1902;-85
2020/12/22 10:24:38;;;;;;;;;;;;;;;;;;5015021;28;798;-88
2020/12/22 10:27:04;;;;;;;;;;;;;;;;;;5014130;28;792;-85
2020/12/22 10:29:30;;;;;;;;;;;;;;;;;;5015212;28;755;-85
2020/12/22 10:31:55;;;;;;;;;;;;;;;;;;5013339;28;1353;-86
2020/12/22 10:34:20;;;;;;;;;;;;;;;;;;5013888;28;1079;-86
2020/12/22 10:36:46;;;;;;;;;;;;;;;;;;5013621;28;1144;-86
2020/12/22 10:39:11;;;;;;;;;;;;;;;;;;5014804;28;841;-81
2020/12/22 10:41:36;;;;;;;;;;;;;;;;;;5014331;28;2022;-79
2020/12/22 10:44:01;;;;;;;;;;;;;;;;;;5014762;28;1052;-79
2020/12/22 10:46:27;;;;;;;;;;;;;;;;;;5014024;28;1263;-79
2020/12/22 10:48:53;;;;;;;;;;;;;;;;;;5014986;28;873;-79
2020/12/22 10:51:18;;;;;;;;;;;;;;;;;;5013150;28;1406;-79
2020/12/22 10:53:43;;;;;;;;;;;;;;;;;;5014171;28;1113;-84
2020/12/22 10:56:16;;;;;;;;;;;;;;;;;;5013298;28;826;-81
2020/12/22 10:58:42;;;;;;;;;;;;;;;;;;5014504;28;869;-81
2020/12/22 11:01:07;;;;;;;;;;;;;;;;;;5013249;28;1906;-81
2020/12/22 11:03:33;;;;;;;;;;;;;;;;;;5013378;28;1373;-80
2020/12/22 11:08:39;;;;;;;;;;;;;;;;;;5014662;28;873;-80
2020/12/22 11:11:05;;;;;;;;;;;;;;;;;;5018450;28;1434;-80
2020/12/22 11:13:30;;;;;;;;;;;;;;;;;;5018439;28;1406;-81
2020/12/22 11:15:56;;;;;;;;;;;;;;;;;;5018322;28;941;-81
2020/12/22 11:18:21;;;;;;;;;;;;;;;;;;5020842;28;988;-80
2020/12/22 11:20:46;;;;;;;;;;;;;;;;;;5024934;28;1953;-81
2020/12/22 11:23:12;;;;;;;;;;;;;;;;;;5029157;28;1726;-81
2020/12/22 11:25:37;;;;;;;;;;;;;;;;;;5020385;28;1754;-81
2020/12/22 11:28:02;;;;;;;;;;;;;;;;;;5017916;28;886;-81
2020/12/22 11:30:27;;;;;;;;;;;;;;;;;;5018143;28;834;-81
2020/12/22 11:32:53;;;;;;;;;;;;;;;;;;5017754;28;1498;-81
2020/12/22 11:35:19;;;;;;;;;;;;;;;;;;5018365;28;908;-81
2020/12/22 11:37:44;;;;;;;;;;;;;;;;;;5016912;28;1454;-81
2020/12/22 11:40:09;;;;;;;;;;;;;;;;;;5017545;28;1894;-81
2020/12/22 11:42:36;;;;;;;;;;;;;;;;;;5017139;28;1374;-81
2020/12/22 11:45:01;;;;;;;;;;;;;;;;;;5019199;28;1623;-81
2020/12/22 11:47:26;;;;;;;;;;;;;;;;;;5037415;28;1808;-84
2020/12/22 11:49:52;;;;;;;;;;;;;;;;;;5022413;28;1699;-84
2020/12/22 11:52:20;;;;;;;;;;;;;;;;;;5016721;28;1381;-83
2020/12/22 11:54:46;;;;;;;;;;;;;;;;;;5018637;28;818;-83
2020/12/22 11:57:11;;;;;;;;;;;;;;;;;;5017630;28;1518;-83
2020/12/22 11:59:36;;;;;;;;;;;;;;;;;;5027049;28;1794;-83
2020/12/22 12:02:04;;;;;;;;;;;;;;;;;;5030200;28;2029;-78
2020/12/22 12:04:30;;;;;;;;;;;;;;;;;;5018639;28;1657;-78
2020/12/22 12:06:56;;;;;;;;;;;;;;;;;;5037265;28;1430;-79
2020/12/22 12:09:21;;;;;;;;;;;;;;;;;;5038630;28;805;-80
2020/12/22 12:11:47;;;;;;;;;;;;;;;;;;5032635;28;1400;-81
2020/12/22 12:14:12;;;;;;;;;;;;;;;;;;5020100;28;948;-80
2020/12/22 12:16:37;;;;;;;;;;;;;;;;;;5019877;28;929;-80
2020/12/22 12:19:02;;;;;;;;;;;;;;;;;;5019922;28;1020;-79
2020/12/22 12:21:28;;;;;;;;;;;;;;;;;;5033200;28;1898;-80
2020/12/22 12:23:53;;;;;;;;;;;;;;;;;;5016269;28;1579;-80
2020/12/22 12:26:22;;;;;;;;;;;;;;;;;;5016880;28;806;-80
2020/12/22 12:28:48;;;;;;;;;;;;;;;;;;5015705;28;826;-79
2020/12/22 12:31:13;;;;;;;;;;;;;;;;;;5015867;28;1127;-80
2020/12/22 12:33:39;;;;;;;;;;;;;;;;;;5016790;28;1299;-81
2020/12/22 12:36:05;;;;;;;;;;;;;;;;;;5017047;28;890;-80
2020/12/22 12:38:30;;;;;;;;;;;;;;;;;;5016744;28;890;-80
2020/12/22 12:40:55;;;;;;;;;;;;;;;;;;5015361;28;1955;-80
2020/12/22 12:43:21;;;;;;;;;;;;;;;;;;5016665;28;1360;-80
2020/12/22 12:45:46;;;;;;;;;;;;;;;;;;5016527;28;956;-81
2020/12/22 12:48:11;;;;;;;;;;;;;;;;;;5016474;28;985;-79
2020/12/22 12:50:36;;;;;;;;;;;;;;;;;;5015097;28;2083;-81
2020/12/22 12:53:02;;;;;;;;;;;;;;;;;;5016476;28;1361;-80
2020/12/22 12:55:27;;;;;;;;;;;;;;;;;;5015438;28;1208;-81
2020/12/22 12:57:52;;;;;;;;;;;;;;;;;;5015136;28;1231;-80
2020/12/22 13:00:18;;;;;;;;;;;;;;;;;;5016195;28;1902;-78
2020/12/22 13:02:43;;;;;;;;;;;;;;;;;;5016255;28;1357;-80
2020/12/22 13:05:08;;;;;;;;;;;;;;;;;;5015207;28;940;-80
2020/12/22 13:07:33;;;;;;;;;;;;;;;;;;5014878;28;1342;-80
2020/12/22 13:10:03;;;;;;;;;;;;;;;;;;5016239;28;810;-81
2020/12/22 13:12:28;;;;;;;;;;;;;;;;;;5015059;28;1350;-78
2020/12/22 13:14:53;;;;;;;;;;;;;;;;;;5016156;28;814;-81
2020/12/22 13:17:19;;;;;;;;;;;;;;;;;;5016082;28;952;-81
2020/12/22 13:19:44;;;;;;;;;;;;;;;;;;5014610;28;870;-79
2020/12/22 13:22:10;;;;;;;;;;;;;;;;;;5015843;28;2326;-82
2020/12/22 13:24:35;;;;;;;;;;;;;;;;;;5014628;28;1243;-80
2020/12/22 13:27:00;;;;;;;;;;;;;;;;;;5016828;28;794;-79
2020/12/22 13:29:26;;;;;;;;;;;;;;;;;;5017132;28;992;-80
2020/12/22 13:31:51;;;;;;;;;;;;;;;;;;5014415;28;1348;-79
2020/12/22 13:34:17;;;;;;;;;;;;;;;;;;5014768;28;1517;-81
2020/12/22 13:36:42;;;;;;;;;;;;;;;;;;5017765;28;801;-80
2020/12/22 13:39:08;;;;;;;;;;;;;;;;;;5016250;28;1232;-81
2020/12/22 13:41:33;;;;;;;;;;;;;;;;;;5015298;28;1955;-82
2020/12/22 13:43:58;;;;;;;;;;;;;;;;;;5015586;28;1059;-80
2020/12/22 13:46:27;;;;;;;;;;;;;;;;;;5015580;28;807;-80
2020/12/22 13:48:52;;;;;;;;;;;;;;;;;;5015602;28;836;-80
2020/12/22 13:51:17;;;;;;;;;;;;;;;;;;5015471;28;1334;-82
2020/12/22 13:53:43;;;;;;;;;;;;;;;;;;5015533;28;833;-80
2020/12/22 13:56:08;;;;;;;;;;;;;;;;;;5017393;28;807;-81
2020/12/22 13:58:33;;;;;;;;;;;;;;;;;;5014534;28;985;-80
2020/12/22 14:00:59;;;;;;;;;;;;;;;;;;5016269;28;1898;-81
2020/12/22 14:03:24;;;;;;;;;;;;;;;;;;5019453;28;1432;-79
2020/12/22 14:05:49;;;;;;;;;;;;;;;;;;5032578;28;1388;-82
2020/12/22 14:08:15;;;;;;;;;;;;;;;;;;5034701;28;1561;-81
2020/12/22 14:10:40;;;;;;;;;;;;;;;;;;5050435;28;1207;-82
2020/12/22 14:13:05;;;;;;;;;;;;;;;;;;5034906;28;1389;-82
2020/12/22 14:15:30;;;;;;;;;;;;;;;;;;5035008;28;873;-82
2020/12/22 14:17:56;;;;;;;;;;;;;;;;;;5035182;28;901;-82
2020/12/22 14:20:21;;;;;;;;;;;;;;;;;;5033409;28;1910;-81
2020/12/22 14:22:46;;;;;;;;;;;;;;;;;;5034812;28;1428;-80
2020/12/22 14:25:11;;;;;;;;;;;;;;;;;;5032936;28;1389;-81
2020/12/22 14:27:36;;;;;;;;;;;;;;;;;;5033445;28;1635;-80
2020/12/22 14:30:02;;;;;;;;;;;;;;;;;;5033435;28;1684;-81
2020/12/22 14:32:27;;;;;;;;;;;;;;;;;;5034780;28;1279;-81
2020/12/22 14:34:52;;;;;;;;;;;;;;;;;;5033269;28;1232;-80
2020/12/22 14:37:18;;;;;;;;;;;;;;;;;;5033257;28;1502;-80
2020/12/22 14:39:43;;;;;;;;;;;;;;;;;;5034958;28;1471;-82
2020/12/22 14:42:08;;;;;;;;;;;;;;;;;;5032325;28;1902;-79
2020/12/22 14:44:33;;;;;;;;;;;;;;;;;;5034042;28;1765;-81
2020/12/22 14:46:59;;;;;;;;;;;;;;;;;;5033780;28;1575;-80
2020/12/22 14:49:24;;;;;;;;;;;;;;;;;;5035116;28;1447;-81
2020/12/22 14:51:49;;;;;;;;;;;;;;;;;;5032625;28;1658;-83
2020/12/22 14:54:17;;;;;;;;;;;;;;;;;;5029537;28;1498;-79
2020/12/22 14:56:42;;;;;;;;;;;;;;;;;;5033542;28;1490;-79
2020/12/22 14:59:08;;;;;;;;;;;;;;;;;;5034884;28;1637;-80
2020/12/22 15:01:33;;;;;;;;;;;;;;;;;;5032603;28;1983;-79
2020/12/22 15:03:58;;;;;;;;;;;;;;;;;;5034112;28;1757;-81
2020/12/22 15:06:24;;;;;;;;;;;;;;;;;;5032746;28;1337;-82
2020/12/22 15:08:49;;;;;;;;;;;;;;;;;;5053081;28;1509;-81
2020/12/22 15:11:15;;;;;;;;;;;;;;;;;;5035709;28;1398;-81
2020/12/22 15:13:41;;;;;;;;;;;;;;;;;;5036214;28;1616;-81
2020/12/22 15:16:07;;;;;;;;;;;;;;;;;;5051224;28;1640;-82
2020/12/22 15:18:32;;;;;;;;;;;;;;;;;;5019409;28;1446;-80
2020/12/22 15:20:57;;;;;;;;;;;;;;;;;;5025001;28;1967;-82
2020/12/22 15:23:23;;;;;;;;;;;;;;;;;;5026410;28;1468;-80
2020/12/22 15:25:48;;;;;;;;;;;;;;;;;;5032531;28;1397;-79
2020/12/22 15:28:14;;;;;;;;;;;;;;;;;;5027884;28;1305;-80
2020/12/22 15:30:39;;;;;;;;;;;;;;;;;;5017868;28;1432;-81
2020/12/22 15:33:05;;;;;;;;;;;;;;;;;;5016717;28;1334;-80
2020/12/22 15:35:30;;;;;;;;;;;;;;;;;;5017239;28;874;-82
2020/12/22 15:37:55;;;;;;;;;;;;;;;;;;5016556;28;1182;-81
2020/12/22 15:40:20;;;;;;;;;;;;;;;;;;5017039;28;1954;-81
2020/12/22 15:42:46;;;;;;;;;;;;;;;;;;5017335;28;1374;-81
2020/12/22 15:45:11;;;;;;;;;;;;;;;;;;5017358;28;917;-80
2020/12/22 15:47:36;;;;;;;;;;;;;;;;;;5016262;28;1287;-80
2020/12/22 15:50:02;;;;;;;;;;;;;;;;;;5015695;28;1323;-79
2020/12/22 15:52:28;;;;;;;;;;;;;;;;;;5016009;28;1350;-80
2020/12/22 15:54:53;;;;;;;;;;;;;;;;;;5016566;28;1319;-81
2020/12/22 15:57:19;;;;;;;;;;;;;;;;;;5015256;28;1354;-81
2020/12/22 15:59:44;;;;;;;;;;;;;;;;;;5015386;28;1121;-80
2020/12/22 16:02:09;;;;;;;;;;;;;;;;;;5015739;28;1894;-81
2020/12/22 16:04:34;;;;;;;;;;;;;;;;;;5016708;28;881;-80
2020/12/22 16:07:00;;;;;;;;;;;;;;;;;;5015631;28;874;-79
2020/12/22 16:09:25;;;;;;;;;;;;;;;;;;5017196;28;755;-80
2020/12/22 16:11:52;;;;;;;;;;;;;;;;;;5016424;28;1353;-80
2020/12/22 16:14:17;;;;;;;;;;;;;;;;;;5015351;28;1397;-81
2020/12/22 16:16:44;;;;;;;;;;;;;;;;;;5016584;28;838;-81
2020/12/22 16:19:09;;;;;;;;;;;;;;;;;;5015391;28;1213;-81
2020/12/22 16:21:35;;;;;;;;;;;;;;;;;;5015008;28;1965;-80
2020/12/22 16:24:00;;;;;;;;;;;;;;;;;;5015344;28;1634;-81
2020/12/22 16:26:25;;;;;;;;;;;;;;;;;;5024925;28;1577;-80
2020/12/22 16:28:51;;;;;;;;;;;;;;;;;;5035252;28;1375;-79
2020/12/22 16:31:16;;;;;;;;;;;;;;;;;;5036014;28;1278;-82
2020/12/22 16:33:42;;;;;;;;;;;;;;;;;;5036147;28;797;-80
2020/12/22 16:36:08;;;;;;;;;;;;;;;;;;5036099;28;746;-81
2020/12/22 16:38:35;;;;;;;;;;;;;;;;;;5036130;28;814;-81
2020/12/22 16:41:00;;;;;;;;;;;;;;;;;;5035855;28;1894;-80
2020/12/22 16:43:25;;;;;;;;;;;;;;;;;;5036202;28;1298;-79
2020/12/22 16:45:51;;;;;;;;;;;;;;;;;;5035948;28;913;-82
2020/12/22 16:48:18;;;;;;;;;;;;;;;;;;5035883;28;801;-79
2020/12/22 16:50:43;;;;;;;;;;;;;;;;;;5035812;28;822;-79
2020/12/22 16:53:09;;;;;;;;;;;;;;;;;;5035806;28;1282;-81
2020/12/22 16:55:34;;;;;;;;;;;;;;;;;;5035923;28;892;-80
2020/12/22 16:57:59;;;;;;;;;;;;;;;;;;5034558;28;1677;-81
2020/12/22 17:00:24;;;;;;;;;;;;;;;;;;5033974;28;1969;-80
2020/12/22 17:02:50;;;;;;;;;;;;;;;;;;5034254;28;1357;-79
2020/12/22 17:05:15;;;;;;;;;;;;;;;;;;5035734;28;820;-80